sensor_id;sensor_type;location;lat;lon;timestamp;P1;durP1;ratioP1;P2;durP2;ratioP2
45366;SDS011;31100;55.848;37.636;2023-09-12T00:01:05;50.80;;;30.15;;
45366;SDS011;31100;55.848;37.636;2023-09-12T00:03:31;43.50;;;25.98;;
45366;SDS011;31100;55.848;37.636;2023-09-12T00:05:58;46.10;;;27.13;;
45366;SDS011;31100;55.848;37.636;2023-09-12T00:08:25;44.40;;;26.92;;
45366;SDS011;31100;55.848;37.636;2023-09-12T00:11:06;41.75;;;24.67;;
45366;SDS011;31100;55.848;37.636;2023-09-12T00:13:36;43.75;;;26.45;;
45366;SDS011;31100;55.848;37.636;2023-09-12T00:16:02;44.30;;;25.42;;
45366;SDS011;31100;55.848;37.636;2023-09-12T00:18:28;48.22;;;25.92;;
45366;SDS011;31100;55.848;37.636;2023-09-12T00:20:53;48.38;;;30.48;;
45366;SDS011;31100;55.848;37.636;2023-09-12T00:23:20;54.47;;;29.92;;
45366;SDS011;31100;55.848;37.636;2023-09-12T00:25:46;48.40;;;28.58;;
45366;SDS011;31100;55.848;37.636;2023-09-12T00:28:11;48.20;;;27.65;;
45366;SDS011;31100;55.848;37.636;2023-09-12T00:30:37;40.15;;;25.45;;
45366;SDS011;31100;55.848;37.636;2023-09-12T00:33:02;42.22;;;25.20;;
45366;SDS011;31100;55.848;37.636;2023-09-12T00:35:28;46.75;;;25.52;;
45366;SDS011;31100;55.848;37.636;2023-09-12T00:37:53;42.00;;;23.50;;
45366;SDS011;31100;55.848;37.636;2023-09-12T00:40:19;46.30;;;24.77;;
45366;SDS011;31100;55.848;37.636;2023-09-12T00:42:44;43.47;;;25.25;;
45366;SDS011;31100;55.848;37.636;2023-09-12T00:45:10;42.47;;;24.60;;
45366;SDS011;31100;55.848;37.636;2023-09-12T00:47:35;44.13;;;25.00;;
45366;SDS011;31100;55.848;37.636;2023-09-12T00:50:01;43.67;;;25.77;;
45366;SDS011;31100;55.848;37.636;2023-09-12T00:52:28;42.58;;;23.75;;
45366;SDS011;31100;55.848;37.636;2023-09-12T00:54:54;43.88;;;24.42;;
45366;SDS011;31100;55.848;37.636;2023-09-12T00:57:20;44.13;;;23.85;;
45366;SDS011;31100;55.848;37.636;2023-09-12T00:59:49;45.65;;;24.20;;
45366;SDS011;31100;55.848;37.636;2023-09-12T01:02:17;43.83;;;24.00;;
45366;SDS011;31100;55.848;37.636;2023-09-12T01:04:43;41.22;;;23.98;;
45366;SDS011;31100;55.848;37.636;2023-09-12T01:07:09;43.20;;;24.90;;
45366;SDS011;31100;55.848;37.636;2023-09-12T01:09:34;43.65;;;23.38;;
45366;SDS011;31100;55.848;37.636;2023-09-12T01:12:00;41.78;;;24.23;;
45366;SDS011;31100;55.848;37.636;2023-09-12T01:14:29;44.83;;;25.67;;
45366;SDS011;31100;55.848;37.636;2023-09-12T01:16:55;42.25;;;25.25;;
45366;SDS011;31100;55.848;37.636;2023-09-12T01:19:21;45.15;;;24.90;;
45366;SDS011;31100;55.848;37.636;2023-09-12T01:24:21;48.05;;;25.88;;
45366;SDS011;31100;55.848;37.636;2023-09-12T01:29:44;50.17;;;29.20;;
45366;SDS011;31100;55.848;37.636;2023-09-12T01:32:11;55.50;;;29.55;;
45366;SDS011;31100;55.848;37.636;2023-09-12T01:34:37;52.08;;;27.52;;
45366;SDS011;31100;55.848;37.636;2023-09-12T01:37:03;53.33;;;27.98;;
45366;SDS011;31100;55.848;37.636;2023-09-12T01:39:28;49.45;;;28.00;;
45366;SDS011;31100;55.848;37.636;2023-09-12T01:41:54;55.05;;;29.20;;
45366;SDS011;31100;55.848;37.636;2023-09-12T01:44:19;49.67;;;27.75;;
45366;SDS011;31100;55.848;37.636;2023-09-12T01:46:48;54.08;;;29.13;;
45366;SDS011;31100;55.848;37.636;2023-09-12T01:49:14;48.20;;;27.98;;
45366;SDS011;31100;55.848;37.636;2023-09-12T01:51:41;52.03;;;28.95;;
45366;SDS011;31100;55.848;37.636;2023-09-12T01:54:09;52.90;;;28.35;;
45366;SDS011;31100;55.848;37.636;2023-09-12T01:56:35;53.22;;;29.60;;
45366;SDS011;31100;55.848;37.636;2023-09-12T01:59:01;49.92;;;27.88;;
45366;SDS011;31100;55.848;37.636;2023-09-12T02:01:27;53.08;;;27.95;;
45366;SDS011;31100;55.848;37.636;2023-09-12T02:03:53;56.60;;;30.65;;
45366;SDS011;31100;55.848;37.636;2023-09-12T02:06:20;53.20;;;28.15;;
45366;SDS011;31100;55.848;37.636;2023-09-12T02:08:46;49.13;;;26.92;;
45366;SDS011;31100;55.848;37.636;2023-09-12T02:11:11;51.53;;;28.33;;
45366;SDS011;31100;55.848;37.636;2023-09-12T02:13:37;51.95;;;27.77;;
45366;SDS011;31100;55.848;37.636;2023-09-12T02:16:02;52.13;;;27.73;;
45366;SDS011;31100;55.848;37.636;2023-09-12T02:18:28;50.08;;;25.83;;
45366;SDS011;31100;55.848;37.636;2023-09-12T02:20:54;51.78;;;27.33;;
45366;SDS011;31100;55.848;37.636;2023-09-12T02:23:19;53.90;;;26.70;;
45366;SDS011;31100;55.848;37.636;2023-09-12T02:25:45;51.95;;;26.67;;
45366;SDS011;31100;55.848;37.636;2023-09-12T02:28:10;54.58;;;29.10;;
45366;SDS011;31100;55.848;37.636;2023-09-12T02:30:39;50.03;;;25.63;;
45366;SDS011;31100;55.848;37.636;2023-09-12T02:33:13;49.00;;;26.77;;
45366;SDS011;31100;55.848;37.636;2023-09-12T02:35:38;48.95;;;25.40;;
45366;SDS011;31100;55.848;37.636;2023-09-12T02:38:04;47.20;;;26.55;;
45366;SDS011;31100;55.848;37.636;2023-09-12T02:40:29;51.50;;;26.17;;
45366;SDS011;31100;55.848;37.636;2023-09-12T02:42:54;49.22;;;26.33;;
45366;SDS011;31100;55.848;37.636;2023-09-12T02:45:20;49.40;;;25.17;;
45366;SDS011;31100;55.848;37.636;2023-09-12T02:47:45;51.50;;;27.10;;
45366;SDS011;31100;55.848;37.636;2023-09-12T02:50:11;47.10;;;26.55;;
45366;SDS011;31100;55.848;37.636;2023-09-12T02:52:37;46.78;;;26.00;;
45366;SDS011;31100;55.848;37.636;2023-09-12T02:55:02;49.75;;;26.83;;
45366;SDS011;31100;55.848;37.636;2023-09-12T02:57:28;50.92;;;26.52;;
45366;SDS011;31100;55.848;37.636;2023-09-12T02:59:54;52.08;;;26.40;;
45366;SDS011;31100;55.848;37.636;2023-09-12T03:02:19;52.72;;;26.67;;
45366;SDS011;31100;55.848;37.636;2023-09-12T03:04:45;51.55;;;25.80;;
45366;SDS011;31100;55.848;37.636;2023-09-12T03:07:10;51.05;;;25.52;;
45366;SDS011;31100;55.848;37.636;2023-09-12T03:09:36;46.75;;;24.98;;
45366;SDS011;31100;55.848;37.636;2023-09-12T03:12:03;50.58;;;25.60;;
45366;SDS011;31100;55.848;37.636;2023-09-12T03:14:29;49.58;;;26.38;;
45366;SDS011;31100;55.848;37.636;2023-09-12T03:16:55;50.83;;;26.17;;
45366;SDS011;31100;55.848;37.636;2023-09-12T03:19:21;49.10;;;26.17;;
45366;SDS011;31100;55.848;37.636;2023-09-12T03:21:46;48.00;;;26.45;;
45366;SDS011;31100;55.848;37.636;2023-09-12T03:24:12;50.22;;;26.58;;
45366;SDS011;31100;55.848;37.636;2023-09-12T03:26:37;46.15;;;24.80;;
45366;SDS011;31100;55.848;37.636;2023-09-12T03:29:03;46.00;;;25.05;;
45366;SDS011;31100;55.848;37.636;2023-09-12T03:31:29;47.80;;;25.65;;
45366;SDS011;31100;55.848;37.636;2023-09-12T03:33:55;45.95;;;27.13;;
45366;SDS011;31100;55.848;37.636;2023-09-12T03:36:20;48.72;;;26.98;;
45366;SDS011;31100;55.848;37.636;2023-09-12T03:38:45;48.58;;;25.63;;
45366;SDS011;31100;55.848;37.636;2023-09-12T03:41:11;44.83;;;25.52;;
45366;SDS011;31100;55.848;37.636;2023-09-12T03:43:36;44.08;;;24.63;;
45366;SDS011;31100;55.848;37.636;2023-09-12T03:46:02;41.80;;;24.30;;
45366;SDS011;31100;55.848;37.636;2023-09-12T03:48:31;43.55;;;24.67;;
45366;SDS011;31100;55.848;37.636;2023-09-12T03:50:57;40.70;;;25.35;;
45366;SDS011;31100;55.848;37.636;2023-09-12T03:53:22;44.45;;;24.83;;
45366;SDS011;31100;55.848;37.636;2023-09-12T03:55:48;42.10;;;25.15;;
45366;SDS011;31100;55.848;37.636;2023-09-12T03:58:14;42.78;;;24.92;;
45366;SDS011;31100;55.848;37.636;2023-09-12T04:00:39;46.28;;;24.88;;
45366;SDS011;31100;55.848;37.636;2023-09-12T04:03:05;43.42;;;24.67;;
45366;SDS011;31100;55.848;37.636;2023-09-12T04:05:30;43.05;;;24.33;;
45366;SDS011;31100;55.848;37.636;2023-09-12T04:07:56;40.08;;;24.10;;
45366;SDS011;31100;55.848;37.636;2023-09-12T04:10:21;40.80;;;23.98;;
45366;SDS011;31100;55.848;37.636;2023-09-12T04:12:47;41.72;;;24.67;;
45366;SDS011;31100;55.848;37.636;2023-09-12T04:15:13;42.42;;;25.05;;
45366;SDS011;31100;55.848;37.636;2023-09-12T04:17:38;43.90;;;24.38;;
45366;SDS011;31100;55.848;37.636;2023-09-12T04:20:04;43.90;;;25.00;;
45366;SDS011;31100;55.848;37.636;2023-09-12T04:22:30;43.85;;;25.77;;
45366;SDS011;31100;55.848;37.636;2023-09-12T04:24:55;42.35;;;24.98;;
45366;SDS011;31100;55.848;37.636;2023-09-12T04:27:21;44.28;;;25.73;;
45366;SDS011;31100;55.848;37.636;2023-09-12T04:29:46;46.58;;;26.38;;
45366;SDS011;31100;55.848;37.636;2023-09-12T04:32:12;43.70;;;25.08;;
45366;SDS011;31100;55.848;37.636;2023-09-12T04:34:37;47.00;;;28.08;;
45366;SDS011;31100;55.848;37.636;2023-09-12T04:37:03;45.60;;;25.33;;
45366;SDS011;31100;55.848;37.636;2023-09-12T04:39:30;45.38;;;26.77;;
45366;SDS011;31100;55.848;37.636;2023-09-12T04:41:56;49.33;;;27.02;;
45366;SDS011;31100;55.848;37.636;2023-09-12T04:44:21;45.15;;;27.08;;
45366;SDS011;31100;55.848;37.636;2023-09-12T04:46:47;43.33;;;26.00;;
45366;SDS011;31100;55.848;37.636;2023-09-12T04:49:13;45.97;;;25.95;;
45366;SDS011;31100;55.848;37.636;2023-09-12T04:51:39;46.05;;;27.17;;
45366;SDS011;31100;55.848;37.636;2023-09-12T04:54:04;47.38;;;27.88;;
45366;SDS011;31100;55.848;37.636;2023-09-12T04:56:30;44.60;;;26.27;;
45366;SDS011;31100;55.848;37.636;2023-09-12T04:58:55;45.58;;;27.65;;
45366;SDS011;31100;55.848;37.636;2023-09-12T05:01:22;47.60;;;28.42;;
45366;SDS011;31100;55.848;37.636;2023-09-12T05:03:47;48.00;;;28.30;;
45366;SDS011;31100;55.848;37.636;2023-09-12T05:06:13;41.97;;;27.60;;
45366;SDS011;31100;55.848;37.636;2023-09-12T05:08:38;46.05;;;28.92;;
45366;SDS011;31100;55.848;37.636;2023-09-12T05:11:04;48.80;;;31.00;;
45366;SDS011;31100;55.848;37.636;2023-09-12T05:13:29;47.00;;;29.35;;
45366;SDS011;31100;55.848;37.636;2023-09-12T05:15:55;47.38;;;31.30;;
45366;SDS011;31100;55.848;37.636;2023-09-12T05:18:22;48.42;;;30.33;;
45366;SDS011;31100;55.848;37.636;2023-09-12T05:20:47;50.40;;;32.45;;
45366;SDS011;31100;55.848;37.636;2023-09-12T05:23:13;47.80;;;30.20;;
45366;SDS011;31100;55.848;37.636;2023-09-12T05:25:38;42.97;;;28.45;;
45366;SDS011;31100;55.848;37.636;2023-09-12T05:28:04;48.70;;;31.45;;
45366;SDS011;31100;55.848;37.636;2023-09-12T05:30:30;49.65;;;30.50;;
45366;SDS011;31100;55.848;37.636;2023-09-12T05:32:55;46.78;;;29.40;;
45366;SDS011;31100;55.848;37.636;2023-09-12T05:35:21;42.00;;;27.85;;
45366;SDS011;31100;55.848;37.636;2023-09-12T05:37:46;42.95;;;28.90;;
45366;SDS011;31100;55.848;37.636;2023-09-12T05:40:12;47.33;;;28.20;;
45366;SDS011;31100;55.848;37.636;2023-09-12T05:42:38;45.70;;;29.55;;
45366;SDS011;31100;55.848;37.636;2023-09-12T05:45:03;46.85;;;28.73;;
45366;SDS011;31100;55.848;37.636;2023-09-12T05:47:29;43.35;;;27.77;;
45366;SDS011;31100;55.848;37.636;2023-09-12T05:49:55;46.47;;;29.85;;
45366;SDS011;31100;55.848;37.636;2023-09-12T05:52:20;51.83;;;31.23;;
45366;SDS011;31100;55.848;37.636;2023-09-12T05:54:46;48.28;;;30.95;;
45366;SDS011;31100;55.848;37.636;2023-09-12T05:57:11;50.95;;;30.60;;
45366;SDS011;31100;55.848;37.636;2023-09-12T05:59:37;46.83;;;30.73;;
45366;SDS011;31100;55.848;37.636;2023-09-12T06:02:03;46.60;;;30.17;;
45366;SDS011;31100;55.848;37.636;2023-09-12T06:04:30;45.80;;;30.10;;
45366;SDS011;31100;55.848;37.636;2023-09-12T06:06:56;44.92;;;28.35;;
45366;SDS011;31100;55.848;37.636;2023-09-12T06:09:22;50.03;;;30.33;;
45366;SDS011;31100;55.848;37.636;2023-09-12T06:11:47;47.28;;;29.98;;
45366;SDS011;31100;55.848;37.636;2023-09-12T06:14:13;46.50;;;29.45;;
45366;SDS011;31100;55.848;37.636;2023-09-12T06:16:38;46.30;;;28.38;;
45366;SDS011;31100;55.848;37.636;2023-09-12T06:19:04;43.65;;;27.85;;
45366;SDS011;31100;55.848;37.636;2023-09-12T06:21:30;41.45;;;27.23;;
45366;SDS011;31100;55.848;37.636;2023-09-12T06:24:10;41.63;;;26.25;;
45366;SDS011;31100;55.848;37.636;2023-09-12T06:26:48;38.92;;;26.08;;
45366;SDS011;31100;55.848;37.636;2023-09-12T06:29:14;39.03;;;26.10;;
45366;SDS011;31100;55.848;37.636;2023-09-12T06:31:40;36.53;;;25.17;;
45366;SDS011;31100;55.848;37.636;2023-09-12T06:34:08;35.38;;;23.85;;
45366;SDS011;31100;55.848;37.636;2023-09-12T06:36:34;34.08;;;24.05;;
45366;SDS011;31100;55.848;37.636;2023-09-12T06:39:00;33.17;;;22.73;;
45366;SDS011;31100;55.848;37.636;2023-09-12T06:41:27;30.70;;;22.30;;
45366;SDS011;31100;55.848;37.636;2023-09-12T06:43:53;34.55;;;23.55;;
45366;SDS011;31100;55.848;37.636;2023-09-12T06:46:18;31.75;;;21.95;;
45366;SDS011;31100;55.848;37.636;2023-09-12T06:48:44;30.08;;;21.50;;
45366;SDS011;31100;55.848;37.636;2023-09-12T06:51:11;34.20;;;22.48;;
45366;SDS011;31100;55.848;37.636;2023-09-12T06:53:37;32.03;;;21.08;;
45366;SDS011;31100;55.848;37.636;2023-09-12T06:56:03;30.48;;;20.77;;
45366;SDS011;31100;55.848;37.636;2023-09-12T06:58:29;27.75;;;20.23;;
45366;SDS011;31100;55.848;37.636;2023-09-12T07:00:55;27.45;;;18.83;;
45366;SDS011;31100;55.848;37.636;2023-09-12T07:03:20;29.90;;;21.35;;
45366;SDS011;31100;55.848;37.636;2023-09-12T07:05:46;27.67;;;20.48;;
45366;SDS011;31100;55.848;37.636;2023-09-12T07:08:12;28.20;;;20.50;;
45366;SDS011;31100;55.848;37.636;2023-09-12T07:10:37;27.08;;;20.27;;
45366;SDS011;31100;55.848;37.636;2023-09-12T07:13:10;29.63;;;20.48;;
45366;SDS011;31100;55.848;37.636;2023-09-12T07:15:35;29.65;;;20.55;;
45366;SDS011;31100;55.848;37.636;2023-09-12T07:18:01;27.88;;;21.15;;
45366;SDS011;31100;55.848;37.636;2023-09-12T07:20:27;27.55;;;20.10;;
45366;SDS011;31100;55.848;37.636;2023-09-12T07:22:53;28.65;;;19.67;;
45366;SDS011;31100;55.848;37.636;2023-09-12T07:25:18;30.08;;;20.92;;
45366;SDS011;31100;55.848;37.636;2023-09-12T07:27:46;27.85;;;20.45;;
45366;SDS011;31100;55.848;37.636;2023-09-12T07:30:11;24.27;;;18.73;;
45366;SDS011;31100;55.848;37.636;2023-09-12T07:32:37;24.63;;;18.95;;
45366;SDS011;31100;55.848;37.636;2023-09-12T07:35:03;26.60;;;19.80;;
45366;SDS011;31100;55.848;37.636;2023-09-12T07:37:29;28.58;;;20.08;;
45366;SDS011;31100;55.848;37.636;2023-09-12T07:39:54;25.00;;;18.60;;
45366;SDS011;31100;55.848;37.636;2023-09-12T07:42:23;25.75;;;18.80;;
45366;SDS011;31100;55.848;37.636;2023-09-12T07:44:49;24.15;;;18.77;;
45366;SDS011;31100;55.848;37.636;2023-09-12T07:47:15;26.33;;;17.88;;
45366;SDS011;31100;55.848;37.636;2023-09-12T07:49:41;24.60;;;17.65;;
45366;SDS011;31100;55.848;37.636;2023-09-12T07:52:07;24.35;;;17.67;;
45366;SDS011;31100;55.848;37.636;2023-09-12T07:54:32;24.27;;;17.27;;
45366;SDS011;31100;55.848;37.636;2023-09-12T07:56:58;23.17;;;17.13;;
45366;SDS011;31100;55.848;37.636;2023-09-12T07:59:25;23.98;;;16.88;;
45366;SDS011;31100;55.848;37.636;2023-09-12T08:01:51;21.05;;;16.42;;
45366;SDS011;31100;55.848;37.636;2023-09-12T08:04:17;20.48;;;16.55;;
45366;SDS011;31100;55.848;37.636;2023-09-12T08:06:42;24.33;;;16.40;;
45366;SDS011;31100;55.848;37.636;2023-09-12T08:09:08;23.77;;;16.48;;
45366;SDS011;31100;55.848;37.636;2023-09-12T08:11:35;19.80;;;15.60;;
45366;SDS011;31100;55.848;37.636;2023-09-12T08:14:00;21.23;;;16.13;;
45366;SDS011;31100;55.848;37.636;2023-09-12T08:16:26;22.30;;;17.10;;
45366;SDS011;31100;55.848;37.636;2023-09-12T08:18:51;22.05;;;15.93;;
45366;SDS011;31100;55.848;37.636;2023-09-12T08:21:17;23.50;;;17.67;;
45366;SDS011;31100;55.848;37.636;2023-09-12T08:23:42;23.48;;;15.82;;
45366;SDS011;31100;55.848;37.636;2023-09-12T08:26:08;20.85;;;15.10;;
45366;SDS011;31100;55.848;37.636;2023-09-12T08:28:34;21.77;;;15.68;;
45366;SDS011;31100;55.848;37.636;2023-09-12T08:31:00;19.90;;;14.75;;
45366;SDS011;31100;55.848;37.636;2023-09-12T08:33:25;21.42;;;16.13;;
45366;SDS011;31100;55.848;37.636;2023-09-12T08:35:51;22.20;;;17.33;;
45366;SDS011;31100;55.848;37.636;2023-09-12T08:38:16;24.05;;;16.88;;
45366;SDS011;31100;55.848;37.636;2023-09-12T08:40:47;20.35;;;14.98;;
45366;SDS011;31100;55.848;37.636;2023-09-12T08:43:16;24.45;;;17.83;;
45366;SDS011;31100;55.848;37.636;2023-09-12T08:45:42;19.60;;;14.52;;
45366;SDS011;31100;55.848;37.636;2023-09-12T08:48:09;19.00;;;13.55;;
45366;SDS011;31100;55.848;37.636;2023-09-12T08:50:38;18.33;;;13.88;;
45366;SDS011;31100;55.848;37.636;2023-09-12T08:53:04;17.83;;;14.10;;
45366;SDS011;31100;55.848;37.636;2023-09-12T08:55:31;20.98;;;15.23;;
45366;SDS011;31100;55.848;37.636;2023-09-12T08:57:58;17.80;;;14.27;;
45366;SDS011;31100;55.848;37.636;2023-09-12T09:00:24;19.60;;;14.65;;
45366;SDS011;31100;55.848;37.636;2023-09-12T09:02:52;21.17;;;16.90;;
45366;SDS011;31100;55.848;37.636;2023-09-12T09:05:19;18.35;;;14.43;;
45366;SDS011;31100;55.848;37.636;2023-09-12T09:07:45;18.67;;;13.93;;
45366;SDS011;31100;55.848;37.636;2023-09-12T09:10:14;17.33;;;13.13;;
45366;SDS011;31100;55.848;37.636;2023-09-12T09:12:40;21.10;;;14.02;;
45366;SDS011;31100;55.848;37.636;2023-09-12T09:15:19;19.17;;;14.07;;
45366;SDS011;31100;55.848;37.636;2023-09-12T09:17:45;20.27;;;14.77;;
45366;SDS011;31100;55.848;37.636;2023-09-12T09:20:20;19.60;;;13.60;;
45366;SDS011;31100;55.848;37.636;2023-09-12T09:23:00;18.63;;;13.23;;
45366;SDS011;31100;55.848;37.636;2023-09-12T09:25:29;17.60;;;13.32;;
45366;SDS011;31100;55.848;37.636;2023-09-12T09:27:56;16.88;;;12.95;;
45366;SDS011;31100;55.848;37.636;2023-09-12T09:30:55;15.93;;;12.60;;
45366;SDS011;31100;55.848;37.636;2023-09-12T09:33:14;17.52;;;11.77;;
45366;SDS011;31100;55.848;37.636;2023-09-12T09:35:46;15.80;;;12.02;;
45366;SDS011;31100;55.848;37.636;2023-09-12T09:38:12;15.32;;;11.38;;
45366;SDS011;31100;55.848;37.636;2023-09-12T09:40:42;13.38;;;9.75;;
45366;SDS011;31100;55.848;37.636;2023-09-12T09:43:08;14.10;;;10.60;;
45366;SDS011;31100;55.848;37.636;2023-09-12T09:45:41;14.27;;;10.55;;
45366;SDS011;31100;55.848;37.636;2023-09-12T09:48:08;17.83;;;11.85;;
45366;SDS011;31100;55.848;37.636;2023-09-12T09:50:34;18.15;;;14.38;;
45366;SDS011;31100;55.848;37.636;2023-09-12T09:53:03;18.15;;;13.32;;
45366;SDS011;31100;55.848;37.636;2023-09-12T09:55:30;15.02;;;11.50;;
45366;SDS011;31100;55.848;37.636;2023-09-12T09:57:57;14.02;;;11.25;;
45366;SDS011;31100;55.848;37.636;2023-09-12T10:00:23;17.67;;;12.23;;
45366;SDS011;31100;55.848;37.636;2023-09-12T10:02:49;15.02;;;11.13;;
45366;SDS011;31100;55.848;37.636;2023-09-12T10:05:25;16.98;;;11.55;;
45366;SDS011;31100;55.848;37.636;2023-09-12T10:07:52;16.50;;;11.30;;
45366;SDS011;31100;55.848;37.636;2023-09-12T10:10:18;14.95;;;10.75;;
45366;SDS011;31100;55.848;37.636;2023-09-12T10:12:57;12.32;;;10.07;;
45366;SDS011;31100;55.848;37.636;2023-09-12T10:15:30;15.65;;;11.98;;
45366;SDS011;31100;55.848;37.636;2023-09-12T10:17:59;15.65;;;11.80;;
45366;SDS011;31100;55.848;37.636;2023-09-12T10:20:28;15.95;;;11.23;;
45366;SDS011;31100;55.848;37.636;2023-09-12T10:25:35;15.40;;;10.88;;
45366;SDS011;31100;55.848;37.636;2023-09-12T10:28:02;13.60;;;10.52;;
45366;SDS011;31100;55.848;37.636;2023-09-12T10:30:29;15.65;;;11.10;;
45366;SDS011;31100;55.848;37.636;2023-09-12T10:32:55;16.70;;;11.52;;
45366;SDS011;31100;55.848;37.636;2023-09-12T10:35:22;15.70;;;11.02;;
45366;SDS011;31100;55.848;37.636;2023-09-12T10:37:48;14.43;;;10.88;;
45366;SDS011;31100;55.848;37.636;2023-09-12T10:40:18;15.27;;;10.18;;
45366;SDS011;31100;55.848;37.636;2023-09-12T10:42:44;14.85;;;10.45;;
45366;SDS011;31100;55.848;37.636;2023-09-12T10:45:09;13.52;;;10.35;;
45366;SDS011;31100;55.848;37.636;2023-09-12T10:47:36;15.55;;;11.25;;
45366;SDS011;31100;55.848;37.636;2023-09-12T10:50:02;16.42;;;12.15;;
45366;SDS011;31100;55.848;37.636;2023-09-12T10:52:28;25.65;;;13.15;;
45366;SDS011;31100;55.848;37.636;2023-09-12T10:54:54;16.65;;;11.50;;
45366;SDS011;31100;55.848;37.636;2023-09-12T10:57:20;14.05;;;11.20;;
45366;SDS011;31100;55.848;37.636;2023-09-12T11:02:30;17.95;;;11.30;;
45366;SDS011;31100;55.848;37.636;2023-09-12T11:05:00;17.17;;;10.63;;
45366;SDS011;31100;55.848;37.636;2023-09-12T11:12:39;11.93;;;7.22;;
45366;SDS011;31100;55.848;37.636;2023-09-12T11:15:06;10.48;;;7.70;;
45366;SDS011;31100;55.848;37.636;2023-09-12T11:17:41;8.88;;;6.15;;
45366;SDS011;31100;55.848;37.636;2023-09-12T11:20:11;10.75;;;7.00;;
45366;SDS011;31100;55.848;37.636;2023-09-12T11:22:38;9.63;;;7.13;;
45366;SDS011;31100;55.848;37.636;2023-09-12T11:30:16;10.63;;;7.72;;
45366;SDS011;31100;55.848;37.636;2023-09-12T11:32:45;11.52;;;7.85;;
45366;SDS011;31100;55.848;37.636;2023-09-12T11:35:13;10.30;;;7.20;;
45366;SDS011;31100;55.848;37.636;2023-09-12T11:37:39;8.05;;;6.65;;
45366;SDS011;31100;55.848;37.636;2023-09-12T11:40:25;11.13;;;7.10;;
45366;SDS011;31100;55.848;37.636;2023-09-12T11:43:01;12.85;;;7.60;;
45366;SDS011;31100;55.848;37.636;2023-09-12T11:45:27;11.45;;;7.75;;
45366;SDS011;31100;55.848;37.636;2023-09-12T11:47:53;11.43;;;7.93;;
45366;SDS011;31100;55.848;37.636;2023-09-12T11:50:34;11.02;;;8.32;;
45366;SDS011;31100;55.848;37.636;2023-09-12T11:53:05;10.60;;;8.38;;
45366;SDS011;31100;55.848;37.636;2023-09-12T11:55:46;12.70;;;8.18;;
45366;SDS011;31100;55.848;37.636;2023-09-12T11:58:16;11.93;;;8.90;;
45366;SDS011;31100;55.848;37.636;2023-09-12T12:03:12;10.75;;;7.22;;
45366;SDS011;31100;55.848;37.636;2023-09-12T12:05:39;12.45;;;7.53;;
45366;SDS011;31100;55.848;37.636;2023-09-12T12:08:06;9.02;;;6.72;;
45366;SDS011;31100;55.848;37.636;2023-09-12T12:10:33;9.88;;;6.75;;
45366;SDS011;31100;55.848;37.636;2023-09-12T12:12:59;9.60;;;6.78;;
45366;SDS011;31100;55.848;37.636;2023-09-12T12:15:27;11.68;;;7.60;;
45366;SDS011;31100;55.848;37.636;2023-09-12T12:17:56;13.70;;;7.07;;
45366;SDS011;31100;55.848;37.636;2023-09-12T12:20:22;10.57;;;7.38;;
45366;SDS011;31100;55.848;37.636;2023-09-12T12:22:48;10.05;;;6.82;;
45366;SDS011;31100;55.848;37.636;2023-09-12T12:25:13;9.50;;;6.82;;
45366;SDS011;31100;55.848;37.636;2023-09-12T12:27:40;12.63;;;7.32;;
45366;SDS011;31100;55.848;37.636;2023-09-12T12:30:09;10.07;;;6.72;;
45366;SDS011;31100;55.848;37.636;2023-09-12T12:32:40;8.88;;;6.55;;
45366;SDS011;31100;55.848;37.636;2023-09-12T12:35:07;11.68;;;6.35;;
45366;SDS011;31100;55.848;37.636;2023-09-12T12:37:33;9.85;;;6.70;;
45366;SDS011;31100;55.848;37.636;2023-09-12T12:39:59;8.63;;;7.00;;
45366;SDS011;31100;55.848;37.636;2023-09-12T12:42:35;11.82;;;7.70;;
45366;SDS011;31100;55.848;37.636;2023-09-12T12:45:10;10.13;;;6.35;;
45366;SDS011;31100;55.848;37.636;2023-09-12T12:47:37;12.10;;;7.70;;
45366;SDS011;31100;55.848;37.636;2023-09-12T12:50:06;10.63;;;7.63;;
45366;SDS011;31100;55.848;37.636;2023-09-12T12:52:34;11.20;;;7.72;;
45366;SDS011;31100;55.848;37.636;2023-09-12T12:55:06;12.57;;;7.47;;
45366;SDS011;31100;55.848;37.636;2023-09-12T12:57:35;9.80;;;7.15;;
45366;SDS011;31100;55.848;37.636;2023-09-12T13:00:07;12.73;;;8.02;;
45366;SDS011;31100;55.848;37.636;2023-09-12T13:02:36;10.57;;;7.55;;
45366;SDS011;31100;55.848;37.636;2023-09-12T13:05:06;12.98;;;8.30;;
45366;SDS011;31100;55.848;37.636;2023-09-12T13:07:36;10.02;;;7.32;;
45366;SDS011;31100;55.848;37.636;2023-09-12T13:10:02;12.02;;;8.00;;
45366;SDS011;31100;55.848;37.636;2023-09-12T13:12:29;9.80;;;7.60;;
45366;SDS011;31100;55.848;37.636;2023-09-12T13:14:55;10.40;;;7.95;;
45366;SDS011;31100;55.848;37.636;2023-09-12T13:17:20;14.98;;;10.35;;
45366;SDS011;31100;55.848;37.636;2023-09-12T13:19:46;12.55;;;8.02;;
45366;SDS011;31100;55.848;37.636;2023-09-12T13:22:12;11.70;;;7.63;;
45366;SDS011;31100;55.848;37.636;2023-09-12T13:24:37;12.13;;;7.60;;
45366;SDS011;31100;55.848;37.636;2023-09-12T13:27:03;10.57;;;7.30;;
45366;SDS011;31100;55.848;37.636;2023-09-12T13:29:29;10.02;;;7.00;;
45366;SDS011;31100;55.848;37.636;2023-09-12T13:31:54;11.93;;;6.97;;
45366;SDS011;31100;55.848;37.636;2023-09-12T13:34:20;13.75;;;7.18;;
45366;SDS011;31100;55.848;37.636;2023-09-12T13:36:45;9.30;;;7.22;;
45366;SDS011;31100;55.848;37.636;2023-09-12T13:39:10;9.68;;;6.80;;
45366;SDS011;31100;55.848;37.636;2023-09-12T13:41:38;11.27;;;7.50;;
45366;SDS011;31100;55.848;37.636;2023-09-12T13:44:05;11.02;;;6.65;;
45366;SDS011;31100;55.848;37.636;2023-09-12T13:46:30;11.05;;;6.82;;
45366;SDS011;31100;55.848;37.636;2023-09-12T13:48:56;9.35;;;6.57;;
45366;SDS011;31100;55.848;37.636;2023-09-12T13:51:25;9.85;;;6.15;;
45366;SDS011;31100;55.848;37.636;2023-09-12T13:53:51;9.18;;;6.45;;
45366;SDS011;31100;55.848;37.636;2023-09-12T13:56:17;11.38;;;5.90;;
45366;SDS011;31100;55.848;37.636;2023-09-12T13:58:42;9.68;;;7.20;;
45366;SDS011;31100;55.848;37.636;2023-09-12T14:01:08;8.60;;;5.78;;
45366;SDS011;31100;55.848;37.636;2023-09-12T14:03:33;9.65;;;6.00;;
45366;SDS011;31100;55.848;37.636;2023-09-12T14:05:59;9.23;;;5.95;;
45366;SDS011;31100;55.848;37.636;2023-09-12T14:08:24;11.27;;;6.75;;
45366;SDS011;31100;55.848;37.636;2023-09-12T14:10:50;10.13;;;6.72;;
45366;SDS011;31100;55.848;37.636;2023-09-12T14:13:15;10.70;;;6.55;;
45366;SDS011;31100;55.848;37.636;2023-09-12T14:15:41;14.52;;;7.03;;
45366;SDS011;31100;55.848;37.636;2023-09-12T14:18:06;11.65;;;7.35;;
45366;SDS011;31100;55.848;37.636;2023-09-12T14:20:32;9.45;;;6.38;;
45366;SDS011;31100;55.848;37.636;2023-09-12T14:22:58;10.63;;;6.72;;
45366;SDS011;31100;55.848;37.636;2023-09-12T14:25:23;8.18;;;6.25;;
45366;SDS011;31100;55.848;37.636;2023-09-12T14:27:49;9.07;;;6.38;;
45366;SDS011;31100;55.848;37.636;2023-09-12T14:30:14;14.15;;;7.15;;
45366;SDS011;31100;55.848;37.636;2023-09-12T14:32:40;7.68;;;5.75;;
45366;SDS011;31100;55.848;37.636;2023-09-12T14:35:05;11.20;;;6.63;;